createdAt,value
2019-02-26T00:01:39.856Z,5.80
2019-02-26T00:04:12.117Z,5.80
2019-02-26T00:06:47.141Z,5.70
2019-02-26T00:09:20.490Z,5.70
2019-02-26T00:11:50.321Z,5.70
2019-02-26T00:14:22.569Z,5.70
2019-02-26T00:16:55.253Z,5.70
2019-02-26T00:19:26.579Z,5.70
2019-02-26T00:21:58.064Z,5.70
2019-02-26T00:24:30.768Z,5.60
2019-02-26T00:27:05.406Z,5.70
2019-02-26T00:29:36.476Z,5.70
2019-02-26T00:32:09.949Z,5.70
2019-02-26T00:34:41.181Z,5.60
2019-02-26T00:37:12.900Z,5.70
2019-02-26T00:39:45.330Z,5.70
2019-02-26T00:42:21.470Z,5.60
2019-02-26T00:44:55.358Z,5.60
2019-02-26T00:47:24.508Z,5.60
2019-02-26T00:49:56.167Z,5.60
2019-02-26T00:52:28.317Z,5.50
2019-02-26T00:55:03.055Z,5.50
2019-02-26T00:57:35.763Z,5.40
2019-02-26T01:00:10.023Z,5.40
2019-02-26T01:02:43.062Z,5.40
2019-02-26T01:05:15.794Z,5.40
2019-02-26T01:07:51.862Z,5.40
2019-02-26T01:10:23.657Z,5.30
2019-02-26T01:13:01.447Z,5.40
2019-02-26T01:15:33.398Z,5.40
2019-02-26T01:18:05.616Z,5.30
2019-02-26T01:20:37.482Z,5.30
2019-02-26T01:23:09.893Z,5.30
2019-02-26T01:25:41.953Z,5.30
2019-02-26T01:28:16.065Z,5.30
2019-02-26T01:30:48.856Z,5.30
2019-02-26T01:33:22.179Z,5.20
2019-02-26T01:35:55.599Z,5.30
2019-02-26T01:38:26.655Z,5.30
2019-02-26T01:40:58.030Z,5.20
2019-02-26T01:43:29.271Z,5.20
2019-02-26T01:46:00.844Z,5.30
2019-02-26T01:48:34.122Z,5.30
2019-02-26T01:51:05.216Z,5.30
2019-02-26T01:53:36.837Z,5.30
2019-02-26T01:56:06.738Z,5.30
2019-02-26T01:58:38.695Z,5.30
2019-02-26T02:01:14.013Z,5.30
2019-02-26T02:03:46.910Z,5.30
2019-02-26T02:06:18.610Z,5.40
2019-02-26T02:08:52.444Z,5.30
2019-02-26T02:11:23.883Z,5.30
2019-02-26T02:13:56.569Z,5.30
2019-02-26T02:16:29.615Z,5.30
2019-02-26T02:19:01.063Z,5.20
2019-02-26T02:21:35.510Z,5.30
2019-02-26T02:24:15.021Z,5.30
2019-02-26T02:26:49.849Z,5.30
2019-02-26T02:29:21.183Z,5.20
2019-02-26T02:31:54.637Z,5.30
2019-02-26T02:34:28.906Z,5.30
2019-02-26T02:37:00.313Z,5.40
2019-02-26T02:39:31.808Z,5.40
2019-02-26T02:42:04.090Z,5.40
2019-02-26T02:44:35.621Z,5.40
2019-02-26T02:47:09.328Z,5.40
2019-02-26T02:49:42.476Z,5.40
2019-02-26T02:52:13.048Z,5.40
2019-02-26T02:54:47.030Z,5.40
2019-02-26T02:57:17.682Z,5.40
2019-02-26T02:59:49.167Z,5.30
2019-02-26T03:02:25.621Z,5.40
2019-02-26T03:04:56.988Z,5.40
2019-02-26T03:07:29.421Z,5.30
2019-02-26T03:10:06.660Z,5.40
2019-02-26T03:12:38.012Z,5.40
2019-02-26T03:15:11.425Z,5.40
2019-02-26T03:17:42.879Z,5.40
2019-02-26T03:20:14.388Z,5.40
2019-02-26T03:22:49.120Z,5.40
2019-02-26T03:25:24.378Z,5.40
2019-02-26T03:27:55.275Z,5.30
2019-02-26T03:30:32.927Z,5.40
2019-02-26T03:33:04.193Z,5.40
2019-02-26T03:35:32.592Z,5.40
2019-02-26T03:38:04.264Z,5.30
2019-02-26T03:40:36.173Z,5.40
2019-02-26T03:43:10.180Z,5.40
2019-02-26T03:45:41.170Z,5.30
2019-02-26T03:48:12.613Z,5.30
2019-02-26T03:50:44.686Z,5.30
2019-02-26T03:53:16.053Z,5.30
2019-02-26T03:55:48.099Z,5.30
2019-02-26T03:58:19.685Z,5.30
2019-02-26T04:00:51.261Z,5.30
2019-02-26T04:03:22.477Z,5.30
2019-02-26T04:05:57.165Z,5.30
2019-02-26T04:08:29.572Z,5.30
2019-02-26T04:11:01.963Z,5.30
2019-02-26T04:13:33.199Z,5.40
2019-02-26T04:16:04.684Z,5.40
2019-02-26T04:18:38.592Z,5.30
2019-02-26T04:21:12.134Z,5.30
2019-02-26T04:23:49.745Z,5.30
2019-02-26T04:26:57.990Z,5.40
2019-02-26T04:30:06.295Z,5.40
2019-02-26T04:33:09.565Z,5.30
2019-02-26T04:36:04.738Z,5.40
2019-02-26T04:39:13.666Z,5.30
2019-02-26T04:42:11.969Z,5.40
2019-02-26T04:45:21.329Z,5.40
2019-02-26T04:47:55.483Z,5.40
2019-02-26T04:50:28.985Z,5.40
2019-02-26T04:53:04.444Z,5.50
2019-02-26T04:55:36.052Z,5.60
2019-02-26T04:58:08.602Z,5.50
2019-02-26T05:00:39.633Z,5.60
2019-02-26T05:03:14.281Z,5.50
2019-02-26T05:05:44.252Z,5.50
2019-02-26T05:08:17.620Z,5.50
2019-02-26T05:10:49.862Z,5.50
2019-02-26T05:13:24.193Z,5.40
2019-02-26T05:15:55.246Z,5.40
2019-02-26T05:18:28.460Z,5.50
2019-02-26T05:21:01.914Z,5.40
2019-02-26T05:23:33.651Z,5.40
2019-02-26T05:26:05.604Z,5.40
2019-02-26T05:28:40.859Z,5.30
2019-02-26T05:31:14.411Z,5.30
2019-02-26T05:33:46.917Z,5.30
2019-02-26T05:36:17.944Z,5.20
2019-02-26T05:38:51.958Z,5.20
2019-02-26T05:41:22.528Z,5.20
2019-02-26T05:44:07.252Z,5.20
2019-02-26T05:46:37.187Z,5.20
2019-02-26T05:49:10.617Z,5.20
2019-02-26T05:51:41.643Z,5.30
2019-02-26T05:54:15.328Z,5.40
2019-02-26T05:56:46.868Z,5.40
2019-02-26T05:59:21.763Z,5.50
2019-02-26T06:01:55.494Z,5.50
2019-02-26T06:04:26.050Z,5.50
2019-02-26T06:06:59.061Z,5.60
2019-02-26T06:09:32.968Z,5.50
2019-02-26T06:12:03.597Z,5.60
2019-02-26T06:14:36.345Z,5.60
2019-02-26T06:17:10.500Z,5.70
2019-02-26T06:19:44.957Z,5.70
2019-02-26T06:22:18.194Z,5.70
2019-02-26T06:24:54.925Z,5.80
2019-02-26T06:27:25.203Z,5.80
2019-02-26T06:29:58.142Z,5.80
2019-02-26T06:32:32.138Z,5.80
2019-02-26T06:35:06.112Z,5.90
2019-02-26T06:37:37.672Z,6.00
2019-02-26T06:40:10.587Z,6.10
2019-02-26T06:42:42.087Z,6.10
2019-02-26T06:45:16.227Z,6.20
2019-02-26T06:47:48.656Z,6.20
2019-02-26T06:50:20.223Z,6.30
2019-02-26T06:52:52.533Z,6.30
2019-02-26T06:55:24.109Z,6.40
2019-02-26T06:57:57.906Z,6.50
2019-02-26T07:00:29.479Z,6.50
2019-02-26T07:03:02.639Z,6.60
2019-02-26T07:05:33.930Z,6.70
2019-02-26T07:08:06.614Z,6.70
2019-02-26T07:10:38.528Z,6.70
2019-02-26T07:13:12.314Z,6.80
2019-02-26T07:15:45.460Z,6.80
2019-02-26T07:18:19.399Z,6.90
2019-02-26T07:20:53.070Z,6.90
2019-02-26T07:23:24.048Z,7.00
2019-02-26T07:25:56.546Z,7.10
2019-02-26T07:28:28.149Z,7.10
2019-02-26T07:31:00.464Z,7.10
2019-02-26T07:33:39.571Z,7.20
2019-02-26T07:36:12.186Z,7.20
2019-02-26T07:38:46.056Z,7.30
2019-02-26T07:41:18.840Z,7.30
2019-02-26T07:43:51.950Z,7.40
2019-02-26T07:46:24.081Z,7.40
2019-02-26T07:48:59.295Z,7.50
2019-02-26T07:51:31.612Z,7.50
2019-02-26T07:54:02.880Z,7.50
2019-02-26T07:56:37.289Z,7.60
2019-02-26T07:59:10.076Z,7.60
2019-02-26T08:01:42.952Z,7.60
2019-02-26T08:04:16.543Z,7.70
2019-02-26T08:06:48.072Z,7.70
2019-02-26T08:09:23.138Z,7.80
2019-02-26T08:11:52.951Z,7.80
2019-02-26T08:14:25.686Z,7.90
2019-02-26T08:16:59.547Z,8.00
2019-02-26T08:19:30.176Z,8.10
2019-02-26T08:22:01.364Z,8.10
2019-02-26T08:24:32.912Z,8.10
2019-02-26T08:27:05.992Z,8.20
2019-02-26T08:29:37.393Z,8.30
2019-02-26T08:32:13.776Z,8.30
2019-02-26T08:34:42.755Z,8.40
2019-02-26T08:37:14.285Z,8.50
2019-02-26T08:39:46.827Z,8.50
2019-02-26T08:42:18.357Z,8.50
2019-02-26T08:44:51.213Z,8.60
2019-02-26T08:47:23.700Z,8.70
2019-02-26T08:49:55.067Z,8.70
2019-02-26T08:52:27.427Z,8.80
2019-02-26T08:54:59.487Z,8.70
2019-02-26T08:57:31.100Z,8.70
2019-02-26T09:00:02.506Z,8.70
2019-02-26T09:02:35.062Z,8.80
2019-02-26T09:05:09.322Z,9.00
2019-02-26T09:07:40.956Z,8.90
2019-02-26T09:10:15.792Z,8.90
2019-02-26T09:12:48.944Z,8.90
2019-02-26T09:15:21.164Z,9.00
2019-02-26T09:17:52.904Z,8.90
2019-02-26T09:20:24.402Z,9.00
2019-02-26T09:22:56.921Z,9.00
2019-02-26T09:25:31.339Z,9.00
2019-02-26T09:28:02.405Z,9.10
2019-02-26T09:30:35.701Z,9.10
2019-02-26T09:33:09.071Z,9.10
2019-02-26T09:35:40.308Z,9.10
2019-02-26T09:38:12.929Z,9.20
2019-02-26T09:40:47.239Z,9.20
2019-02-26T09:43:19.674Z,9.20
2019-02-26T09:45:52.897Z,9.10
2019-02-26T09:48:24.690Z,9.30
2019-02-26T09:50:56.098Z,9.20
2019-02-26T09:53:32.827Z,9.10
2019-02-26T09:56:04.111Z,9.20
2019-02-26T09:58:37.346Z,9.30
2019-02-26T10:01:09.093Z,9.30
2019-02-26T10:03:41.871Z,9.30
2019-02-26T10:06:14.178Z,9.30
2019-02-26T10:08:48.456Z,9.30
2019-02-26T10:11:21.233Z,9.30
2019-02-26T10:13:53.543Z,9.40
2019-02-26T10:16:25.808Z,9.40
2019-02-26T10:18:58.004Z,9.40
2019-02-26T10:21:29.467Z,9.40
2019-02-26T10:24:02.019Z,9.50
2019-02-26T10:26:35.961Z,9.40
2019-02-26T10:29:07.997Z,9.40
2019-02-26T10:31:41.088Z,9.40
2019-02-26T10:34:15.538Z,9.30
2019-02-26T10:36:47.276Z,9.50
2019-02-26T10:39:20.738Z,9.40
2019-02-26T10:41:52.693Z,9.30
2019-02-26T10:44:24.144Z,9.40
2019-02-26T10:46:55.445Z,9.40
2019-02-26T10:49:28.603Z,9.30
2019-02-26T10:52:00.090Z,9.30
2019-02-26T10:54:36.629Z,9.40
2019-02-26T10:57:07.679Z,9.50
2019-02-26T10:59:41.799Z,9.40
2019-02-26T11:02:14.438Z,9.40
2019-02-26T11:04:46.886Z,9.40
2019-02-26T11:07:18.621Z,9.40
2019-02-26T11:09:53.012Z,9.40
2019-02-26T11:12:25.686Z,9.40
2019-02-26T11:14:58.464Z,9.40
2019-02-26T11:17:31.592Z,9.40
2019-02-26T11:20:04.652Z,9.50
2019-02-26T11:22:35.965Z,9.60
2019-02-26T11:25:08.556Z,9.50
2019-02-26T11:27:41.781Z,9.50
2019-02-26T11:30:18.300Z,9.50
2019-02-26T11:32:48.902Z,9.70
2019-02-26T11:35:22.574Z,9.40
2019-02-26T11:37:55.421Z,9.50
2019-02-26T11:40:29.565Z,9.40
2019-02-26T11:43:10.893Z,9.30
2019-02-26T11:45:35.162Z,9.30
2019-02-26T11:48:08.665Z,9.30
2019-02-26T11:50:44.224Z,9.30
2019-02-26T11:53:13.239Z,9.30
2019-02-26T11:55:44.850Z,9.20
2019-02-26T11:58:18.741Z,9.20
2019-02-26T12:00:57.094Z,9.30
2019-02-26T12:03:32.752Z,9.40
2019-02-26T12:06:02.208Z,9.50
2019-02-26T12:08:33.820Z,9.40
2019-02-26T12:11:07.119Z,9.30
2019-02-26T12:13:39.629Z,9.20
2019-02-26T12:16:11.480Z,9.30
2019-02-26T12:18:44.340Z,9.40
2019-02-26T12:21:16.024Z,9.40
2019-02-26T12:23:48.039Z,9.40
2019-02-26T12:26:22.180Z,9.40
2019-02-26T12:28:54.738Z,9.20
2019-02-26T12:31:31.220Z,9.30
2019-02-26T12:34:01.125Z,9.40
2019-02-26T12:36:33.662Z,9.40
2019-02-26T12:39:08.011Z,9.40
2019-02-26T12:41:42.528Z,9.40
2019-02-26T12:44:16.135Z,9.30
2019-02-26T12:46:47.767Z,9.30
2019-02-26T12:49:22.379Z,9.20
2019-02-26T12:51:56.534Z,9.20
2019-02-26T12:54:29.480Z,9.20
2019-02-26T12:57:04.215Z,9.20
2019-02-26T12:59:34.814Z,9.20
2019-02-26T13:02:09.342Z,9.30
2019-02-26T13:04:40.905Z,9.30
2019-02-26T13:07:13.007Z,9.20
2019-02-26T13:09:47.977Z,9.30
2019-02-26T13:12:20.465Z,9.30
2019-02-26T13:14:54.144Z,9.30
2019-02-26T13:17:26.193Z,9.40
2019-02-26T13:19:58.991Z,9.30
2019-02-26T13:22:30.036Z,9.30
2019-02-26T13:25:03.588Z,9.20
2019-02-26T13:27:35.239Z,9.20
2019-02-26T13:30:09.473Z,9.20
2019-02-26T13:32:55.299Z,9.30
2019-02-26T13:35:14.613Z,9.20
2019-02-26T13:37:46.992Z,9.10
2019-02-26T13:40:19.438Z,9.20
2019-02-26T13:45:24.681Z,9.00
2019-02-26T13:48:01.139Z,9.00
2019-02-26T13:50:30.424Z,8.90
2019-02-26T13:53:02.551Z,8.90
2019-02-26T13:55:35.293Z,8.90
2019-02-26T13:58:11.763Z,8.90
2019-02-26T14:00:41.426Z,8.90
2019-02-26T14:03:12.969Z,9.00
2019-02-26T14:05:44.383Z,9.00
2019-02-26T14:08:16.003Z,8.90
2019-02-26T14:10:47.439Z,8.90
2019-02-26T14:13:18.825Z,8.90
2019-02-26T14:15:50.854Z,9.00
2019-02-26T14:18:22.524Z,9.00
2019-02-26T14:20:53.829Z,9.00
2019-02-26T14:23:25.127Z,9.10
2019-02-26T14:25:56.731Z,8.90
2019-02-26T14:28:28.082Z,8.90
2019-02-26T14:30:59.586Z,8.90
2019-02-26T14:33:31.080Z,8.80
2019-02-26T14:36:02.552Z,8.70
2019-02-26T14:38:34.105Z,8.80
2019-02-26T14:41:05.578Z,8.70
2019-02-26T14:43:37.231Z,8.60
2019-02-26T14:46:09.232Z,8.70
2019-02-26T14:48:40.595Z,8.70
2019-02-26T14:51:12.442Z,8.60
2019-02-26T14:53:43.962Z,8.60
2019-02-26T14:56:15.781Z,8.50
2019-02-26T14:58:47.094Z,8.50
2019-02-26T15:01:18.520Z,8.40
2019-02-26T15:03:50.635Z,8.40
2019-02-26T15:06:21.903Z,8.40
2019-02-26T15:08:53.815Z,8.40
2019-02-26T15:11:25.542Z,8.40
2019-02-26T15:13:56.967Z,8.30
2019-02-26T15:16:28.612Z,8.40
2019-02-26T15:19:00.962Z,8.30
2019-02-26T15:21:32.394Z,8.20
2019-02-26T15:24:04.062Z,8.20
2019-02-26T15:26:35.714Z,8.20
2019-02-26T15:29:07.284Z,8.20
2019-02-26T15:31:39.622Z,8.10
2019-02-26T15:34:11.307Z,8.00
2019-02-26T15:36:42.747Z,8.00
2019-02-26T15:39:14.321Z,8.00
2019-02-26T15:41:45.706Z,8.00
2019-02-26T15:44:17.213Z,8.00
2019-02-26T15:46:48.718Z,7.90
2019-02-26T15:49:20.208Z,7.90
2019-02-26T15:51:51.939Z,7.80
2019-02-26T15:54:25.289Z,7.70
2019-02-26T15:57:00.412Z,7.60
2019-02-26T15:59:30.983Z,7.60
2019-02-26T16:02:02.766Z,7.60
2019-02-26T16:04:34.808Z,7.50
2019-02-26T16:07:07.094Z,7.50
2019-02-26T16:09:38.770Z,7.50
2019-02-26T16:12:10.700Z,7.40
2019-02-26T16:14:42.369Z,7.40
2019-02-26T16:17:14.057Z,7.30
2019-02-26T16:19:45.417Z,7.20
2019-02-26T16:22:17.131Z,7.20
2019-02-26T16:24:50.155Z,7.20
2019-02-26T16:27:21.793Z,7.20
2019-02-26T16:29:54.193Z,7.10
2019-02-26T16:32:25.704Z,7.10
2019-02-26T16:34:57.496Z,7.10
2019-02-26T16:37:29.556Z,7.00
2019-02-26T16:40:01.071Z,7.00
2019-02-26T16:42:32.651Z,6.90
2019-02-26T16:45:05.103Z,6.90
2019-02-26T16:47:36.837Z,6.90
2019-02-26T16:50:13.231Z,6.80
2019-02-26T16:52:44.418Z,6.90
2019-02-26T16:55:17.262Z,6.90
2019-02-26T16:57:49.088Z,6.80
2019-02-26T17:00:21.994Z,6.80
2019-02-26T17:02:54.072Z,6.70
2019-02-26T17:05:25.807Z,6.70
2019-02-26T17:07:57.684Z,6.60
2019-02-26T17:10:30.691Z,6.60
2019-02-26T17:13:07.652Z,6.60
2019-02-26T17:15:39.397Z,6.50
2019-02-26T17:18:12.642Z,6.60
2019-02-26T17:20:45.197Z,6.50
2019-02-26T17:23:18.541Z,6.50
2019-02-26T17:25:50.392Z,6.40
2019-02-26T17:28:22.103Z,6.40
2019-02-26T17:30:57.385Z,6.30
2019-02-26T17:33:27.512Z,6.40
2019-02-26T17:35:59.554Z,6.40
2019-02-26T17:38:32.338Z,6.40
2019-02-26T17:41:03.977Z,6.30
2019-02-26T17:43:36.321Z,6.30
2019-02-26T17:46:07.897Z,6.30
2019-02-26T17:48:43.581Z,6.20
2019-02-26T17:51:13.896Z,6.10
2019-02-26T17:53:45.413Z,6.00
2019-02-26T17:56:17.075Z,6.10
2019-02-26T17:58:49.439Z,6.00
2019-02-26T18:01:20.988Z,6.00
2019-02-26T18:03:53.314Z,5.90
2019-02-26T18:06:24.846Z,5.80
2019-02-26T18:08:56.956Z,5.80
2019-02-26T18:11:28.829Z,5.80
2019-02-26T18:14:00.786Z,5.70
2019-02-26T18:16:34.497Z,5.60
2019-02-26T18:19:06.228Z,5.60
2019-02-26T18:21:37.831Z,5.60
2019-02-26T18:24:10.724Z,5.60
2019-02-26T18:26:42.170Z,5.60
2019-02-26T18:29:13.663Z,5.50
2019-02-26T18:31:45.141Z,5.40
2019-02-26T18:34:17.114Z,5.40
2019-02-26T18:36:48.976Z,5.30
2019-02-26T18:39:22.623Z,5.30
2019-02-26T18:41:54.622Z,5.40
2019-02-26T18:44:28.015Z,5.30
2019-02-26T18:46:59.819Z,5.30
2019-02-26T18:49:31.463Z,5.30
2019-02-26T18:52:03.149Z,5.30
2019-02-26T18:54:35.138Z,5.30
2019-02-26T18:57:06.732Z,5.20
2019-02-26T18:59:38.208Z,5.20
2019-02-26T19:02:10.527Z,5.20
2019-02-26T19:04:41.805Z,5.20
2019-02-26T19:07:13.605Z,5.10
2019-02-26T19:09:45.623Z,5.20
2019-02-26T19:12:18.668Z,5.20
2019-02-26T19:14:51.881Z,5.10
2019-02-26T19:17:26.557Z,5.00
2019-02-26T19:19:56.802Z,5.00
2019-02-26T19:22:28.277Z,5.00
2019-02-26T19:24:59.841Z,5.00
2019-02-26T19:27:31.346Z,5.00
2019-02-26T19:30:04.663Z,4.90
2019-02-26T19:32:47.753Z,4.90
2019-02-26T19:35:21.856Z,4.90
2019-02-26T19:37:56.089Z,4.90
2019-02-26T19:40:30.771Z,4.90
2019-02-26T19:43:02.640Z,4.90
2019-02-26T19:45:34.300Z,4.90
2019-02-26T19:48:06.160Z,4.90
2019-02-26T19:50:38.119Z,4.90
2019-02-26T19:53:10.833Z,4.80
2019-02-26T19:55:42.806Z,4.80
2019-02-26T19:58:15.384Z,4.80
2019-02-26T20:00:46.893Z,4.80
2019-02-26T20:03:19.094Z,4.80
2019-02-26T20:05:51.543Z,4.80
2019-02-26T20:08:23.343Z,4.80
2019-02-26T20:10:57.781Z,4.80
2019-02-26T20:13:31.679Z,4.70
2019-02-26T20:16:04.695Z,4.70
2019-02-26T20:18:37.998Z,4.70
2019-02-26T20:21:09.572Z,4.80
2019-02-26T20:23:41.977Z,4.70
2019-02-26T20:26:16.462Z,4.70
2019-02-26T20:28:47.956Z,4.70
2019-02-26T20:31:21.944Z,4.70
2019-02-26T20:33:59.789Z,4.70
2019-02-26T20:36:31.590Z,4.60
2019-02-26T20:39:07.964Z,4.70
2019-02-26T20:41:40.049Z,4.70
2019-02-26T20:44:12.061Z,4.70
2019-02-26T20:46:44.182Z,4.60
2019-02-26T20:49:16.236Z,4.60
2019-02-26T20:51:48.210Z,4.60
2019-02-26T20:54:21.909Z,4.60
2019-02-26T20:56:54.395Z,4.60
2019-02-26T20:59:26.301Z,4.50
2019-02-26T21:01:58.987Z,4.50
2019-02-26T21:04:31.085Z,4.50
2019-02-26T21:07:04.086Z,4.50
2019-02-26T21:09:37.809Z,4.40
2019-02-26T21:12:09.795Z,4.40
2019-02-26T21:14:41.953Z,4.40
2019-02-26T21:17:14.819Z,4.30
2019-02-26T21:19:46.741Z,4.20
2019-02-26T21:22:23.721Z,4.20
2019-02-26T21:24:55.615Z,4.30
2019-02-26T21:27:27.309Z,4.30
2019-02-26T21:29:59.076Z,4.20
2019-02-26T21:32:30.740Z,4.10
2019-02-26T21:35:02.504Z,4.00
2019-02-26T21:37:34.179Z,3.90
2019-02-26T21:40:07.226Z,3.90
2019-02-26T21:42:44.387Z,4.00
2019-02-26T21:45:16.474Z,4.00
2019-02-26T21:47:48.293Z,4.00
2019-02-26T21:50:22.759Z,4.00
2019-02-26T21:53:01.963Z,4.00
2019-02-26T21:55:27.885Z,4.00
2019-02-26T21:57:59.617Z,4.10
2019-02-26T22:00:31.295Z,4.00
2019-02-26T22:03:03.523Z,3.80
2019-02-26T22:05:37.425Z,3.60
2019-02-26T22:08:09.999Z,3.50
2019-02-26T22:10:43.499Z,3.50
2019-02-26T22:13:17.547Z,3.50
2019-02-26T22:15:49.761Z,3.60
2019-02-26T22:18:21.981Z,3.60
2019-02-26T22:20:54.335Z,3.60
2019-02-26T22:23:26.464Z,3.50
2019-02-26T22:25:58.558Z,3.40
2019-02-26T22:28:30.695Z,3.40
2019-02-26T22:31:02.791Z,3.30
2019-02-26T22:33:35.063Z,3.20
2019-02-26T22:36:07.117Z,3.20
2019-02-26T22:38:39.162Z,3.10
2019-02-26T22:41:12.020Z,3.10
2019-02-26T22:43:44.794Z,3.10
2019-02-26T22:46:18.092Z,3.10
2019-02-26T22:48:50.704Z,3.20
2019-02-26T22:51:22.986Z,3.10
2019-02-26T22:53:55.201Z,3.00
2019-02-26T22:56:27.309Z,3.00
2019-02-26T22:58:59.535Z,3.10
2019-02-26T23:01:39.610Z,3.10
2019-02-26T23:04:12.864Z,3.10
2019-02-26T23:06:45.571Z,3.10
2019-02-26T23:09:24.099Z,3.00
2019-02-26T23:11:56.305Z,3.10
2019-02-26T23:14:28.552Z,3.10
2019-02-26T23:17:00.838Z,3.20
2019-02-26T23:19:36.439Z,3.10
2019-02-26T23:22:07.119Z,3.10
2019-02-26T23:24:39.474Z,3.10
2019-02-26T23:27:14.932Z,3.10
2019-02-26T23:29:45.981Z,3.20
2019-02-26T23:32:20.069Z,3.30
2019-02-26T23:35:05.787Z,3.40
2019-02-26T23:37:37.869Z,3.30
2019-02-26T23:40:11.077Z,3.40
2019-02-26T23:42:44.983Z,3.40
2019-02-26T23:45:17.696Z,3.40
2019-02-26T23:47:49.957Z,3.40
2019-02-26T23:50:22.091Z,3.50
2019-02-26T23:52:54.470Z,3.50
2019-02-26T23:55:27.768Z,3.50
2019-02-26T23:57:59.714Z,3.60
